Time;durP1;ratioP1;P1;durP2;ratioP2;P2;SDS_P1;SDS_P2;PMS_P1;PMS_P2;Temp;Humidity;BMP_temperature;BMP_pressure;BME280_temperature;BME280_humidity;BME280_pressure;Samples;Min_cycle;Max_cycle;Signal;HPM_P1;HPM_P2
2021/11/24 00:00:21;;;;;;;25.77;3.42;;;;;;;;;;4981163;28;20447;-69
2021/11/24 00:02:48;;;;;;;36.22;3.42;;;;;;;;;;4984932;28;20130;-69
2021/11/24 00:05:15;;;;;;;45.50;4.03;;;;;;;;;;4977903;28;20046;-68
2021/11/24 00:07:42;;;;;;;36.35;3.70;;;;;;;;;;4987372;28;20156;-69
2021/11/24 00:10:10;;;;;;;43.10;3.78;;;;;;;;;;4987693;28;20506;-68
2021/11/24 00:12:36;;;;;;;37.15;4.40;;;;;;;;;;4992874;28;20096;-68
2021/11/24 00:15:04;;;;;;;38.85;3.95;;;;;;;;;;4986759;28;20066;-68
2021/11/24 00:17:31;;;;;;;29.00;3.13;;;;;;;;;;4979854;28;20075;-68
2021/11/24 00:19:57;;;;;;;29.55;3.33;;;;;;;;;;4988612;28;20145;-69
2021/11/24 00:22:24;;;;;;;39.40;3.92;;;;;;;;;;4981366;28;20126;-68
2021/11/24 00:24:50;;;;;;;30.80;4.05;;;;;;;;;;4984074;28;20081;-69
2021/11/24 00:27:17;;;;;;;38.13;3.90;;;;;;;;;;4983994;28;20097;-68
2021/11/24 00:29:43;;;;;;;31.98;4.20;;;;;;;;;;4984830;28;20051;-68
2021/11/24 00:32:10;;;;;;;30.85;2.90;;;;;;;;;;4984799;28;20086;-68
2021/11/24 00:34:37;;;;;;;24.75;2.95;;;;;;;;;;4986976;28;20066;-69
2021/11/24 00:37:03;;;;;;;22.80;3.42;;;;;;;;;;4985513;28;20134;-68
2021/11/24 00:39:30;;;;;;;;;;;;;;;;;;4985532;28;20052;-68
2021/11/24 00:41:57;;;;;;;31.92;3.40;;;;;;;;;;4985936;28;20009;-68
2021/11/24 00:44:23;;;;;;;32.20;2.88;;;;;;;;;;4986190;28;20173;-69
2021/11/24 00:46:50;;;;;;;30.98;3.17;;;;;;;;;;4985586;28;20078;-68
2021/11/24 00:49:16;;;;;;;38.70;3.33;;;;;;;;;;4984502;28;20086;-68
2021/11/24 00:51:43;;;;;;;31.35;3.58;;;;;;;;;;4987904;28;20483;-68
2021/11/24 00:54:10;;;;;;;22.30;2.60;;;;;;;;;;4979433;28;20533;-68
2021/11/24 00:56:36;;;;;;;34.00;3.03;;;;;;;;;;4986534;28;20077;-69
2021/11/24 00:59:04;;;;;;;21.20;2.83;;;;;;;;;;4980308;28;20050;-68
2021/11/24 01:01:30;;;;;;;;;;;;;;;;;;4979028;28;20607;-68
2021/11/24 01:03:57;;;;;;;31.35;4.15;;;;;;;;;;4984685;28;19925;-69
2021/11/24 01:06:23;;;;;;;33.72;3.30;;;;;;;;;;4979882;28;20070;-68
2021/11/24 01:08:51;;;;;;;33.58;4.05;;;;;;;;;;4980348;28;20133;-68
2021/11/24 01:11:18;;;;;;;22.55;2.97;;;;;;;;;;4980713;28;20078;-69
2021/11/24 01:13:44;;;;;;;41.78;4.22;;;;;;;;;;4981195;28;20490;-69
2021/11/24 01:16:11;;;;;;;33.65;3.60;;;;;;;;;;4979123;28;20077;-69
2021/11/24 01:18:38;;;;;;;29.45;3.92;;;;;;;;;;4983926;28;20566;-68
2021/11/24 01:21:05;;;;;;;41.67;3.92;;;;;;;;;;4982508;28;20462;-68
2021/11/24 01:23:32;;;;;;;44.70;4.25;;;;;;;;;;4990135;28;20496;-68
2021/11/24 01:25:59;;;;;;;35.42;3.45;;;;;;;;;;4980519;28;20059;-69
2021/11/24 01:28:26;;;;;;;29.77;2.95;;;;;;;;;;4983533;28;20141;-69
2021/11/24 01:30:53;;;;;;;29.95;3.45;;;;;;;;;;4985709;28;20125;-68
2021/11/24 01:33:20;;;;;;;37.33;3.70;;;;;;;;;;4984342;28;20047;-68
2021/11/24 01:35:46;;;;;;;40.40;5.10;;;;;;;;;;5000224;28;20077;-69
2021/11/24 01:38:13;;;;;;;35.13;3.67;;;;;;;;;;5012126;28;20136;-69
2021/11/24 01:40:40;;;;;;;23.58;3.60;;;;;;;;;;4999432;28;20387;-68
2021/11/24 01:43:08;;;;;;;39.22;4.07;;;;;;;;;;5001831;28;20089;-68
2021/11/24 01:45:36;;;;;;;36.40;3.28;;;;;;;;;;5012377;28;20418;-68
2021/11/24 01:48:02;;;;;;;38.20;4.28;;;;;;;;;;5011340;28;20124;-69
2021/11/24 01:50:29;;;;;;;21.80;3.25;;;;;;;;;;5010154;28;20100;-68
2021/11/24 01:52:56;;;;;;;58.17;4.45;;;;;;;;;;5009135;28;20149;-68
2021/11/24 01:55:23;;;;;;;24.73;3.25;;;;;;;;;;5011247;28;20136;-68
2021/11/24 01:57:50;;;;;;;29.02;3.13;;;;;;;;;;5011910;28;20127;-68
2021/11/24 02:00:18;;;;;;;33.40;3.05;;;;;;;;;;5014074;28;20564;-68
2021/11/24 02:02:44;;;;;;;27.52;3.40;;;;;;;;;;5008340;28;20141;-68
2021/11/24 02:05:11;;;;;;;50.93;3.67;;;;;;;;;;5004790;28;20057;-68
2021/11/24 02:07:38;;;;;;;26.77;3.40;;;;;;;;;;5009585;28;20132;-69
2021/11/24 02:10:05;;;;;;;34.40;4.20;;;;;;;;;;5011847;28;20136;-68
2021/11/24 02:12:31;;;;;;;32.20;3.35;;;;;;;;;;5004665;28;20097;-68
2021/11/24 02:14:58;;;;;;;36.08;3.55;;;;;;;;;;5006788;28;20133;-68
2021/11/24 02:17:24;;;;;;;35.22;4.07;;;;;;;;;;5004040;28;20562;-69
2021/11/24 02:19:51;;;;;;;40.55;3.75;;;;;;;;;;5011897;28;20081;-69
2021/11/24 02:22:18;;;;;;;34.13;6.07;;;;;;;;;;5009759;28;20073;-68
2021/11/24 02:24:44;;;;;;;34.63;5.32;;;;;;;;;;5011708;28;20317;-69
2021/11/24 02:27:12;;;;;;;28.38;3.72;;;;;;;;;;5010533;28;20663;-69
2021/11/24 02:29:38;;;;;;;;;;;;;;;;;;5008512;28;20129;-68
2021/11/24 02:32:05;;;;;;;35.67;3.35;;;;;;;;;;5002493;28;20386;-69
2021/11/24 02:34:32;;;;;;;37.40;3.38;;;;;;;;;;5000613;28;20056;-68
2021/11/24 02:37:00;;;;;;;31.58;3.33;;;;;;;;;;4987425;28;20097;-69
2021/11/24 02:39:26;;;;;;;33.58;3.95;;;;;;;;;;4989070;28;20050;-69
2021/11/24 02:41:53;;;;;;;31.38;3.90;;;;;;;;;;4988168;28;20133;-69
2021/11/24 02:44:24;;;;;;;37.10;4.05;;;;;;;;;;4975490;28;20137;-69
2021/11/24 02:46:52;;;;;;;45.38;4.20;;;;;;;;;;4983526;28;20129;-69
2021/11/24 02:49:18;;;;;;;37.50;3.83;;;;;;;;;;4984060;28;20141;-69
2021/11/24 02:51:46;;;;;;;34.85;3.20;;;;;;;;;;4989971;28;20525;-69
2021/11/24 02:54:13;;;;;;;36.78;3.20;;;;;;;;;;4993636;28;20081;-69
2021/11/24 02:56:40;;;;;;;46.63;3.95;;;;;;;;;;4985835;28;20073;-69
2021/11/24 02:59:07;;;;;;;;;;;;;;;;;;4984128;28;20105;-69
2021/11/24 03:01:33;;;;;;;38.35;3.33;;;;;;;;;;4983524;28;20012;-69
2021/11/24 03:04:03;;;;;;;39.15;3.65;;;;;;;;;;4980028;28;20050;-69
2021/11/24 03:06:30;;;;;;;43.28;4.13;;;;;;;;;;4987632;28;20104;-69
2021/11/24 03:08:56;;;;;;;30.58;4.10;;;;;;;;;;4990627;28;20137;-70
2021/11/24 03:11:23;;;;;;;34.28;4.30;;;;;;;;;;4986606;28;20482;-70
2021/11/24 03:13:49;;;;;;;37.88;4.05;;;;;;;;;;4985888;28;20058;-69
2021/11/24 03:16:16;;;;;;;49.97;4.55;;;;;;;;;;4984267;28;20194;-70
2021/11/24 03:18:42;;;;;;;31.65;3.75;;;;;;;;;;4988166;28;20389;-70
2021/11/24 03:21:10;;;;;;;35.17;3.85;;;;;;;;;;4987700;28;20129;-69
2021/11/24 03:23:36;;;;;;;32.97;4.68;;;;;;;;;;4986963;28;20058;-69
2021/11/24 03:26:02;;;;;;;25.80;3.60;;;;;;;;;;4985614;28;20086;-70
2021/11/24 03:28:29;;;;;;;28.38;3.80;;;;;;;;;;4982813;28;20133;-70
2021/11/24 03:30:56;;;;;;;49.92;4.03;;;;;;;;;;4987773;28;20586;-70
2021/11/24 03:33:22;;;;;;;36.95;4.68;;;;;;;;;;4988658;28;20125;-70
2021/11/24 03:35:49;;;;;;;29.65;4.15;;;;;;;;;;4986129;28;20089;-70
2021/11/24 03:38:16;;;;;;;35.97;3.50;;;;;;;;;;4973650;28;20093;-70
2021/11/24 03:40:42;;;;;;;30.75;3.65;;;;;;;;;;4989257;28;20081;-70
2021/11/24 03:43:09;;;;;;;36.70;4.60;;;;;;;;;;4985914;28;20085;-70
2021/11/24 03:45:37;;;;;;;30.55;4.45;;;;;;;;;;4988106;28;20400;-70
2021/11/24 03:48:03;;;;;;;;;;;;;;;;;;4982595;28;20141;-70
2021/11/24 03:50:30;;;;;;;33.17;3.33;;;;;;;;;;4981576;28;19969;-70
2021/11/24 03:52:57;;;;;;;32.55;3.58;;;;;;;;;;4989113;28;20132;-69
2021/11/24 03:55:23;;;;;;;40.67;4.00;;;;;;;;;;4986624;28;20133;-70
2021/11/24 03:57:50;;;;;;;47.90;3.78;;;;;;;;;;4987162;28;20133;-70
2021/11/24 04:00:19;;;;;;;34.00;3.47;;;;;;;;;;4971196;28;20138;-70
2021/11/24 04:02:45;;;;;;;31.95;3.20;;;;;;;;;;4984694;28;20054;-70
2021/11/24 04:05:13;;;;;;;33.60;3.13;;;;;;;;;;4986646;28;20047;-70
2021/11/24 04:07:39;;;;;;;38.70;3.70;;;;;;;;;;4983195;28;20046;-70
2021/11/24 04:10:07;;;;;;;47.53;3.42;;;;;;;;;;4988884;28;20173;-69
2021/11/24 04:12:33;;;;;;;43.03;4.00;;;;;;;;;;4983037;28;20137;-70
2021/11/24 04:15:00;;;;;;;36.75;3.17;;;;;;;;;;4979477;28;20123;-70
2021/11/24 04:17:26;;;;;;;28.52;3.65;;;;;;;;;;4985249;28;20133;-69
2021/11/24 04:19:53;;;;;;;47.55;4.78;;;;;;;;;;4986822;28;20074;-70
2021/11/24 04:22:20;;;;;;;36.42;3.78;;;;;;;;;;4986601;28;20081;-69
2021/11/24 04:24:46;;;;;;;37.15;3.58;;;;;;;;;;4984926;28;20086;-70
2021/11/24 04:27:13;;;;;;;33.37;3.43;;;;;;;;;;4989286;28;20133;-69
2021/11/24 04:29:40;;;;;;;36.85;3.40;;;;;;;;;;4988290;28;20436;-70
2021/11/24 04:32:07;;;;;;;;;;;;;;;;;;4985001;28;20082;-70
2021/11/24 04:34:34;;;;;;;33.55;3.40;;;;;;;;;;4985824;28;19922;-69
2021/11/24 04:37:01;;;;;;;79.05;3.60;;;;;;;;;;4983519;28;20108;-70
2021/11/24 04:39:27;;;;;;;43.13;3.20;;;;;;;;;;4985568;28;20502;-69
2021/11/24 04:41:54;;;;;;;38.13;3.67;;;;;;;;;;4989234;28;20721;-70
2021/11/24 04:44:21;;;;;;;35.13;3.30;;;;;;;;;;4976407;28;20059;-70
2021/11/24 04:46:47;;;;;;;29.75;3.25;;;;;;;;;;4984263;28;20126;-70
2021/11/24 04:49:14;;;;;;;48.50;3.77;;;;;;;;;;4981082;28;20056;-70
2021/11/24 04:51:41;;;;;;;44.38;3.60;;;;;;;;;;4985004;28;20085;-70
2021/11/24 04:54:07;;;;;;;41.40;3.83;;;;;;;;;;4984009;28;20574;-70
2021/11/24 04:56:34;;;;;;;42.60;4.83;;;;;;;;;;4988368;28;20121;-70
2021/11/24 04:59:02;;;;;;;32.70;3.83;;;;;;;;;;4987393;28;20105;-70
2021/11/24 05:01:29;;;;;;;46.65;4.05;;;;;;;;;;4985177;28;20607;-70
2021/11/24 05:03:56;;;;;;;53.75;3.90;;;;;;;;;;4984702;28;20042;-70
2021/11/24 05:06:23;;;;;;;36.83;3.70;;;;;;;;;;4984092;28;20054;-69
2021/11/24 05:08:50;;;;;;;28.20;3.42;;;;;;;;;;4981635;28;20161;-69
2021/11/24 05:11:17;;;;;;;37.58;3.85;;;;;;;;;;4988954;28;20602;-70
2021/11/24 05:13:57;;;;;;;24.77;3.42;;;;;;;;;;4982830;28;20074;-70
2021/11/24 05:16:28;;;;;;;27.25;3.35;;;;;;;;;;4985081;28;20121;-70
2021/11/24 05:18:55;;;;;;;37.95;3.92;;;;;;;;;;4987638;28;20081;-70
2021/11/24 05:23:49;;;;;;;35.90;3.70;;;;;;;;;;4987147;28;20178;-70
2021/11/24 05:26:16;;;;;;;38.28;3.47;;;;;;;;;;4984436;28;20133;-70
2021/11/24 05:28:46;;;;;;;44.10;3.63;;;;;;;;;;4982128;28;20046;-69
2021/11/24 05:31:13;;;;;;;30.10;2.88;;;;;;;;;;4984938;28;20426;-69
2021/11/24 05:33:40;;;;;;;28.30;3.37;;;;;;;;;;4985000;28;20065;-68
2021/11/24 05:36:06;;;;;;;25.47;2.90;;;;;;;;;;4983457;28;20384;-70
2021/11/24 05:38:33;;;;;;;35.53;4.28;;;;;;;;;;4986253;28;20627;-70
2021/11/24 05:40:59;;;;;;;35.05;3.13;;;;;;;;;;4982533;28;20096;-70
2021/11/24 05:43:29;;;;;;;;;;;;;;;;;;4984295;28;20065;-69
2021/11/24 05:48:24;;;;;;;36.70;3.37;;;;;;;;;;4981991;28;20046;-71
2021/11/24 05:50:51;;;;;;;38.95;3.78;;;;;;;;;;4984916;28;20070;-69
2021/11/24 05:53:19;;;;;;;35.10;3.30;;;;;;;;;;4982775;28;20141;-71
2021/11/24 05:55:47;;;;;;;28.15;3.13;;;;;;;;;;4985297;28;20074;-70
2021/11/24 05:58:13;;;;;;;;;;;;;;;;;;4982642;28;20081;-70
2021/11/24 06:00:40;;;;;;;39.13;4.10;;;;;;;;;;4986237;28;19930;-70
2021/11/24 06:03:07;;;;;;;32.67;3.70;;;;;;;;;;4984419;28;20046;-70
2021/11/24 06:05:33;;;;;;;32.58;3.47;;;;;;;;;;4982838;28;20511;-70
2021/11/24 06:08:01;;;;;;;45.83;3.60;;;;;;;;;;4983910;28;20129;-70
2021/11/24 06:10:27;;;;;;;45.13;3.78;;;;;;;;;;4981509;28;21970;-70
2021/11/24 06:12:54;;;;;;;27.88;3.47;;;;;;;;;;4978004;28;20507;-70
2021/11/24 06:15:21;;;;;;;18.52;2.78;;;;;;;;;;4976134;28;20133;-70
2021/11/24 06:17:48;;;;;;;32.17;3.22;;;;;;;;;;4977632;28;20152;-69
2021/11/24 06:20:15;;;;;;;42.88;3.60;;;;;;;;;;4977053;28;20161;-70
2021/11/24 06:22:42;;;;;;;26.85;2.88;;;;;;;;;;4976888;28;20133;-71
2021/11/24 06:25:10;;;;;;;38.78;3.15;;;;;;;;;;4976570;28;20105;-69
2021/11/24 06:27:37;;;;;;;36.95;3.00;;;;;;;;;;4975688;28;20550;-70
2021/11/24 06:30:04;;;;;;;46.80;3.08;;;;;;;;;;4976327;28;20514;-69
2021/11/24 06:32:31;;;;;;;51.47;3.55;;;;;;;;;;4978357;28;20169;-70
2021/11/24 06:34:57;;;;;;;39.70;3.53;;;;;;;;;;4977549;28;20078;-70
2021/11/24 06:37:24;;;;;;;39.78;4.03;;;;;;;;;;4980490;28;20130;-70
2021/11/24 06:39:51;;;;;;;36.05;3.80;;;;;;;;;;4981513;28;20070;-70
2021/11/24 06:42:17;;;;;;;48.50;3.45;;;;;;;;;;4980921;28;20145;-70
2021/11/24 06:44:44;;;;;;;43.10;3.65;;;;;;;;;;4981762;28;20082;-70
2021/11/24 06:47:13;;;;;;;29.80;2.63;;;;;;;;;;4979912;28;20130;-69
2021/11/24 06:49:39;;;;;;;30.23;3.72;;;;;;;;;;4980596;28;20047;-70
2021/11/24 06:52:06;;;;;;;34.75;3.42;;;;;;;;;;4980782;28;20097;-69
2021/11/24 06:54:33;;;;;;;40.42;3.58;;;;;;;;;;4982881;28;20510;-69
2021/11/24 06:57:00;;;;;;;34.10;3.20;;;;;;;;;;4982406;28;20089;-70
2021/11/24 06:59:27;;;;;;;20.17;2.83;;;;;;;;;;4980151;28;20271;-70
2021/11/24 07:01:53;;;;;;;29.38;3.25;;;;;;;;;;4981227;28;20141;-70
2021/11/24 07:04:20;;;;;;;46.40;3.20;;;;;;;;;;4980194;28;20054;-70
2021/11/24 07:06:46;;;;;;;25.30;3.53;;;;;;;;;;4981857;28;20223;-70
2021/11/24 07:09:14;;;;;;;28.10;2.92;;;;;;;;;;4980017;28;20133;-69
2021/11/24 07:11:41;;;;;;;33.17;3.55;;;;;;;;;;4981010;28;20094;-70
2021/11/24 07:14:08;;;;;;;28.20;3.38;;;;;;;;;;4981470;28;20129;-69
2021/11/24 07:16:36;;;;;;;32.50;2.55;;;;;;;;;;4978927;28;20124;-69
2021/11/24 07:19:02;;;;;;;;;;;;;;;;;;4980614;28;20534;-70
2021/11/24 07:21:29;;;;;;;29.90;3.40;;;;;;;;;;4981133;28;20069;-70
2021/11/24 07:23:56;;;;;;;30.75;2.90;;;;;;;;;;4978047;28;20714;-70
2021/11/24 07:26:22;;;;;;;36.67;3.38;;;;;;;;;;4978442;28;20476;-70
2021/11/24 07:28:49;;;;;;;45.13;4.07;;;;;;;;;;4978964;28;20485;-70
2021/11/24 07:31:15;;;;;;;31.75;4.05;;;;;;;;;;4979889;28;20491;-70
2021/11/24 07:33:42;;;;;;;31.48;3.75;;;;;;;;;;4980588;28;20132;-69
2021/11/24 07:36:09;;;;;;;44.75;3.28;;;;;;;;;;4980404;28;20144;-71
2021/11/24 07:38:38;;;;;;;33.67;3.58;;;;;;;;;;4980200;28;20564;-70
2021/11/24 07:41:04;;;;;;;24.73;3.40;;;;;;;;;;4978778;28;20133;-70
2021/11/24 07:43:33;;;;;;;37.15;4.03;;;;;;;;;;4979546;28;20663;-70
2021/11/24 07:45:59;;;;;;;38.42;4.07;;;;;;;;;;4988549;28;20050;-70
2021/11/24 07:48:26;;;;;;;21.05;3.20;;;;;;;;;;4983488;28;20689;-70
2021/11/24 07:50:52;;;;;;;26.40;3.67;;;;;;;;;;4985118;28;20467;-70
2021/11/24 07:53:19;;;;;;;24.23;3.35;;;;;;;;;;4987057;28;20133;-70
2021/11/24 07:55:45;;;;;;;37.95;2.90;;;;;;;;;;4986578;28;20133;-69
2021/11/24 07:58:14;;;;;;;32.92;4.22;;;;;;;;;;4987095;28;21599;-70
2021/11/24 08:00:40;;;;;;;33.40;3.65;;;;;;;;;;4981572;28;20473;-70
2021/11/24 08:03:07;;;;;;;41.63;3.40;;;;;;;;;;4978874;28;20052;-70
2021/11/24 08:05:34;;;;;;;36.72;3.47;;;;;;;;;;4979589;28;20309;-70
2021/11/24 08:08:01;;;;;;;40.75;3.50;;;;;;;;;;4979883;28;20254;-70
2021/11/24 08:10:27;;;;;;;44.03;4.28;;;;;;;;;;4980396;28;20111;-70
2021/11/24 08:12:54;;;;;;;37.20;3.20;;;;;;;;;;4980232;28;20755;-70
2021/11/24 08:15:21;;;;;;;36.50;3.47;;;;;;;;;;4979351;28;20061;-70
2021/11/24 08:17:48;;;;;;;31.85;3.42;;;;;;;;;;4986518;28;20070;-70
2021/11/24 08:20:15;;;;;;;28.25;3.58;;;;;;;;;;4983474;28;20074;-70
2021/11/24 08:22:41;;;;;;;31.95;3.60;;;;;;;;;;4979359;28;20042;-70
2021/11/24 08:25:08;;;;;;;28.63;3.25;;;;;;;;;;4979359;28;20446;-70
2021/11/24 08:27:35;;;;;;;39.08;3.17;;;;;;;;;;4976422;28;20117;-70
2021/11/24 08:30:03;;;;;;;30.43;3.40;;;;;;;;;;4978010;28;20129;-70
2021/11/24 08:32:30;;;;;;;33.75;3.33;;;;;;;;;;4978900;28;20129;-70
2021/11/24 08:34:59;;;;;;;31.23;3.63;;;;;;;;;;4978853;28;20518;-70
2021/11/24 08:37:26;;;;;;;26.58;3.63;;;;;;;;;;4978628;28;20077;-70
2021/11/24 08:39:52;;;;;;;37.83;3.55;;;;;;;;;;4979231;28;20486;-70
2021/11/24 08:42:19;;;;;;;20.60;3.00;;;;;;;;;;4978099;28;20109;-70
2021/11/24 08:44:46;;;;;;;23.90;3.65;;;;;;;;;;4980288;28;20073;-70
2021/11/24 08:47:13;;;;;;;33.42;3.63;;;;;;;;;;4977726;28;20246;-70
2021/11/24 08:49:39;;;;;;;31.73;4.05;;;;;;;;;;4978259;28;20138;-70
2021/11/24 08:52:06;;;;;;;28.45;3.50;;;;;;;;;;4978648;28;20265;-70
2021/11/24 08:54:33;;;;;;;34.95;3.45;;;;;;;;;;4977028;28;20073;-70
2021/11/24 08:57:00;;;;;;;26.73;3.42;;;;;;;;;;4980363;28;20074;-70
2021/11/24 08:59:27;;;;;;;25.30;3.00;;;;;;;;;;4977493;28;20080;-70
2021/11/24 09:01:55;;;;;;;26.25;4.22;;;;;;;;;;4984805;28;20088;-70
2021/11/24 09:04:23;;;;;;;26.45;3.58;;;;;;;;;;4980394;28;20050;-70
2021/11/24 09:06:49;;;;;;;40.33;4.10;;;;;;;;;;4979708;28;20133;-70
2021/11/24 09:09:16;;;;;;;36.00;3.22;;;;;;;;;;4978662;28;20513;-70
2021/11/24 09:11:43;;;;;;;21.90;2.83;;;;;;;;;;4978376;28;20284;-70
2021/11/24 09:14:09;;;;;;;28.80;4.40;;;;;;;;;;4977943;28;20070;-70
2021/11/24 09:16:47;;;;;;;;;;;;;;;;;;4978349;28;20411;-70
2021/11/24 09:19:14;;;;;;;27.63;3.03;;;;;;;;;;4977790;28;20040;-70
2021/11/24 09:21:40;;;;;;;31.23;2.95;;;;;;;;;;4978491;28;20109;-70
2021/11/24 09:24:12;;;;;;;27.42;3.33;;;;;;;;;;4977224;28;20491;-70
2021/11/24 09:29:07;;;;;;;26.40;2.78;;;;;;;;;;4977615;28;20177;-70
2021/11/24 09:31:33;;;;;;;19.25;2.60;;;;;;;;;;4977523;28;20153;-70
2021/11/24 09:34:00;;;;;;;30.80;3.28;;;;;;;;;;4977499;28;20042;-70
2021/11/24 09:36:27;;;;;;;25.93;3.00;;;;;;;;;;4976981;28;20638;-71
2021/11/24 09:38:54;;;;;;;19.15;3.03;;;;;;;;;;4975972;28;20130;-70
2021/11/24 09:41:23;;;;;;;27.58;3.30;;;;;;;;;;4975622;28;20131;-71
2021/11/24 09:43:51;;;;;;;26.60;2.65;;;;;;;;;;4977587;28;20156;-70
2021/11/24 09:46:18;;;;;;;22.23;3.28;;;;;;;;;;4977693;28;20144;-71
2021/11/24 09:48:45;;;;;;;25.10;3.55;;;;;;;;;;4977642;28;20051;-71
2021/11/24 09:51:12;;;;;;;36.95;3.10;;;;;;;;;;4976512;28;20142;-71
2021/11/24 09:53:40;;;;;;;27.20;2.60;;;;;;;;;;4974781;28;20129;-71
2021/11/24 09:56:07;;;;;;;25.90;3.15;;;;;;;;;;4977657;28;20578;-71
2021/11/24 09:58:33;;;;;;;30.77;2.55;;;;;;;;;;4976447;28;20126;-71
2021/11/24 10:01:01;;;;;;;32.10;3.20;;;;;;;;;;4974504;28;20279;-71
2021/11/24 10:03:30;;;;;;;20.50;2.85;;;;;;;;;;4977416;28;20046;-71
2021/11/24 10:05:57;;;;;;;20.95;2.67;;;;;;;;;;4981019;28;20054;-70
2021/11/24 10:08:31;;;;;;;23.13;2.92;;;;;;;;;;4981964;28;20182;-71
2021/11/24 10:10:59;;;;;;;18.92;3.05;;;;;;;;;;4982183;28;20085;-71
2021/11/24 10:13:27;;;;;;;13.88;2.28;;;;;;;;;;4981970;28;20545;-71
2021/11/24 10:15:56;;;;;;;22.98;2.67;;;;;;;;;;4980519;28;20082;-71
2021/11/24 10:18:28;;;;;;;18.20;2.92;;;;;;;;;;4980736;28;20051;-71
2021/11/24 10:20:55;;;;;;;21.63;3.28;;;;;;;;;;4982403;28;20105;-71
2021/11/24 10:23:32;;;;;;;26.35;4.28;;;;;;;;;;4963752;28;20146;-71
2021/11/24 10:26:18;;;;;;;22.70;2.88;;;;;;;;;;4981141;28;20054;-70
2021/11/24 10:29:04;;;;;;;15.95;2.08;;;;;;;;;;4982841;28;20138;-71
2021/11/24 10:31:36;;;;;;;30.98;2.95;;;;;;;;;;4980961;28;20140;-71
2021/11/24 10:34:12;;;;;;;25.48;3.42;;;;;;;;;;4982092;28;20042;-70
2021/11/24 10:36:52;;;;;;;17.77;2.90;;;;;;;;;;4981721;28;20414;-71
2021/11/24 10:39:18;;;;;;;22.70;3.22;;;;;;;;;;4973156;28;20129;-71
2021/11/24 10:41:45;;;;;;;21.63;2.60;;;;;;;;;;4981720;28;20108;-71
2021/11/24 10:44:27;;;;;;;27.85;3.10;;;;;;;;;;4973426;28;20042;-71
2021/11/24 10:46:56;;;;;;;20.10;2.85;;;;;;;;;;4980593;28;20415;-71
2021/11/24 10:49:40;;;;;;;26.05;3.10;;;;;;;;;;4981667;28;20125;-71
2021/11/24 10:52:34;;;;;;;21.90;3.35;;;;;;;;;;4980337;28;20245;-71
2021/11/24 10:55:01;;;;;;;21.23;2.38;;;;;;;;;;4975663;28;20073;-71
2021/11/24 10:57:31;;;;;;;19.08;2.92;;;;;;;;;;4980637;28;20073;-71
2021/11/24 10:59:57;;;;;;;;;;;;;;;;;;4980338;28;20129;-70
2021/11/24 11:02:23;;;;;;;22.80;2.45;;;;;;;;;;4979359;28;20016;-71
2021/11/24 11:04:53;;;;;;;17.35;2.42;;;;;;;;;;4978996;28;20058;-71
2021/11/24 11:07:20;;;;;;;17.42;2.33;;;;;;;;;;4982388;28;20150;-71
2021/11/24 11:09:46;;;;;;;24.20;2.53;;;;;;;;;;4980314;28;20051;-71
2021/11/24 11:12:15;;;;;;;19.83;2.80;;;;;;;;;;4977705;28;20154;-71
2021/11/24 11:14:42;;;;;;;24.52;3.40;;;;;;;;;;4979885;28;20074;-71
2021/11/24 11:17:10;;;;;;;23.23;2.60;;;;;;;;;;4979411;28;20136;-71
2021/11/24 11:19:49;;;;;;;21.02;2.63;;;;;;;;;;4980913;28;20042;-70
2021/11/24 11:22:17;;;;;;;18.75;2.45;;;;;;;;;;4981193;28;20049;-71
2021/11/24 11:24:44;;;;;;;18.50;3.13;;;;;;;;;;4978935;28;20132;-70
2021/11/24 11:27:11;;;;;;;21.42;3.15;;;;;;;;;;4980782;28;20144;-70
2021/11/24 11:29:40;;;;;;;15.73;2.70;;;;;;;;;;4981259;28;20487;-70
2021/11/24 11:32:08;;;;;;;14.43;2.80;;;;;;;;;;4980027;28;20050;-70
2021/11/24 11:34:37;;;;;;;20.15;2.63;;;;;;;;;;4972835;28;20055;-71
2021/11/24 11:37:04;;;;;;;14.50;2.00;;;;;;;;;;4978271;28;20126;-71
2021/11/24 11:39:33;;;;;;;20.98;2.58;;;;;;;;;;4980163;28;20598;-70
2021/11/24 11:42:01;;;;;;;13.77;2.67;;;;;;;;;;4979422;28;20050;-70
2021/11/24 11:44:47;;;;;;;14.95;2.15;;;;;;;;;;4980972;28;20053;-71
2021/11/24 11:47:42;;;;;;;14.15;2.47;;;;;;;;;;4980363;28;20050;-70
2021/11/24 11:50:11;;;;;;;13.27;2.65;;;;;;;;;;4979918;28;21431;-70
2021/11/24 11:52:38;;;;;;;9.82;1.73;;;;;;;;;;4979610;28;20069;-70
2021/11/24 11:55:21;;;;;;;18.17;2.50;;;;;;;;;;4979878;28;21058;-71
2021/11/24 11:57:48;;;;;;;12.65;1.92;;;;;;;;;;4978819;28;20085;-70
2021/11/24 12:00:15;;;;;;;14.45;2.03;;;;;;;;;;4979320;28;20627;-70
2021/11/24 12:02:48;;;;;;;14.35;2.30;;;;;;;;;;4978866;28;20088;-70
2021/11/24 12:05:16;;;;;;;15.60;2.08;;;;;;;;;;4979443;28;20422;-70
2021/11/24 12:08:01;;;;;;;13.00;2.00;;;;;;;;;;4977763;28;20187;-71
2021/11/24 12:10:46;;;;;;;24.13;3.17;;;;;;;;;;4978791;28;20047;-71
2021/11/24 12:13:13;;;;;;;13.90;2.88;;;;;;;;;;4978298;28;20082;-70
2021/11/24 12:15:40;;;;;;;19.10;1.80;;;;;;;;;;4980312;28;21269;-70
2021/11/24 12:18:14;;;;;;;8.60;1.95;;;;;;;;;;4980416;28;20046;-70
2021/11/24 12:20:43;;;;;;;11.93;1.85;;;;;;;;;;4980150;28;20049;-70
2021/11/24 12:23:28;;;;;;;11.73;1.85;;;;;;;;;;4986926;28;20047;-71
2021/11/24 12:25:55;;;;;;;19.20;2.40;;;;;;;;;;4985278;28;20042;-71
2021/11/24 12:28:23;;;;;;;9.95;2.08;;;;;;;;;;4985160;28;20093;-70
2021/11/24 12:30:50;;;;;;;12.20;2.22;;;;;;;;;;4984780;28;20073;-70
2021/11/24 12:33:17;;;;;;;14.70;1.90;;;;;;;;;;4981315;28;20189;-70
2021/11/24 12:35:52;;;;;;;10.25;2.42;;;;;;;;;;4980228;28;20453;-71
2021/11/24 12:38:27;;;;;;;9.32;2.10;;;;;;;;;;4977762;28;20180;-70
2021/11/24 12:40:56;;;;;;;11.90;1.80;;;;;;;;;;4978509;28;20137;-70
2021/11/24 12:43:24;;;;;;;7.00;1.48;;;;;;;;;;4979418;28;20129;-70
2021/11/24 12:45:58;;;;;;;14.25;2.08;;;;;;;;;;4978546;28;20097;-70
2021/11/24 12:48:31;;;;;;;12.75;2.25;;;;;;;;;;4978670;28;20042;-70
2021/11/24 12:51:05;;;;;;;9.93;1.60;;;;;;;;;;4978503;28;20077;-70
2021/11/24 12:53:42;;;;;;;9.27;1.60;;;;;;;;;;4977879;28;20505;-71
2021/11/24 12:56:43;;;;;;;9.88;2.22;;;;;;;;;;4977657;28;20517;-70
2021/11/24 12:59:14;;;;;;;13.95;2.00;;;;;;;;;;4979940;28;20054;-70
2021/11/24 13:01:42;;;;;;;9.38;1.63;;;;;;;;;;4978972;28;20047;-70
2021/11/24 13:04:12;;;;;;;9.57;1.70;;;;;;;;;;4976671;28;20062;-70
2021/11/24 13:06:41;;;;;;;6.72;1.27;;;;;;;;;;4978455;28;20133;-70
2021/11/24 13:09:10;;;;;;;13.20;2.03;;;;;;;;;;4977636;28;20089;-70
2021/11/24 13:12:02;;;;;;;8.73;1.70;;;;;;;;;;4976598;28;20046;-70
2021/11/24 13:14:29;;;;;;;7.53;1.70;;;;;;;;;;4977775;28;20054;-70
2021/11/24 13:17:04;;;;;;;15.48;2.53;;;;;;;;;;4963152;28;20134;-70
2021/11/24 13:19:40;;;;;;;11.82;1.77;;;;;;;;;;4978393;28;20046;-70
2021/11/24 13:22:07;;;;;;;6.03;1.63;;;;;;;;;;4978076;28;20089;-71
2021/11/24 13:24:39;;;;;;;14.13;1.88;;;;;;;;;;4975738;28;20482;-70
2021/11/24 13:27:06;;;;;;;7.03;1.05;;;;;;;;;;4980228;28;20078;-70
2021/11/24 13:29:35;;;;;;;9.98;1.83;;;;;;;;;;4978664;28;20557;-70
2021/11/24 13:32:13;;;;;;;9.50;1.30;;;;;;;;;;4975970;28;20526;-70
2021/11/24 13:34:41;;;;;;;13.77;1.70;;;;;;;;;;4979619;28;20140;-70
2021/11/24 13:37:09;;;;;;;13.35;1.52;;;;;;;;;;4979023;28;20093;-70
2021/11/24 13:39:36;;;;;;;9.57;1.60;;;;;;;;;;4978773;28;20504;-71
2021/11/24 13:42:06;;;;;;;10.02;1.55;;;;;;;;;;4976324;28;20074;-71
2021/11/24 13:44:33;;;;;;;8.13;1.60;;;;;;;;;;4976345;28;20128;-71
2021/11/24 13:47:05;;;;;;;10.40;1.73;;;;;;;;;;4976529;28;20403;-70
2021/11/24 13:49:32;;;;;;;7.43;1.15;;;;;;;;;;4975547;28;20131;-71
2021/11/24 13:52:09;;;;;;;9.00;1.87;;;;;;;;;;4976103;28;20054;-70
2021/11/24 13:54:40;;;;;;;5.70;1.10;;;;;;;;;;4978236;28;20117;-71
2021/11/24 13:57:07;;;;;;;13.30;1.77;;;;;;;;;;4977353;28;20495;-71
2021/11/24 13:59:35;;;;;;;6.90;1.40;;;;;;;;;;4977445;28;20123;-71
2021/11/24 14:02:01;;;;;;;;;;;;;;;;;;4978055;28;20561;-71
2021/11/24 14:04:33;;;;;;;9.73;1.40;;;;;;;;;;4977359;28;19922;-71
2021/11/24 14:07:21;;;;;;;6.28;1.80;;;;;;;;;;4977515;28;20133;-70
2021/11/24 14:09:55;;;;;;;10.57;1.52;;;;;;;;;;4978939;28;20641;-71
2021/11/24 14:12:25;;;;;;;10.95;1.55;;;;;;;;;;4978570;28;20054;-71
2021/11/24 14:14:54;;;;;;;11.90;1.90;;;;;;;;;;4978253;28;20042;-70
2021/11/24 14:17:25;;;;;;;8.85;1.77;;;;;;;;;;4968403;28;20058;-71
2021/11/24 14:19:51;;;;;;;7.28;1.77;;;;;;;;;;4985098;28;20195;-70
2021/11/24 14:22:32;;;;;;;13.43;2.10;;;;;;;;;;4977643;28;20321;-70
2021/11/24 14:24:59;;;;;;;8.15;1.40;;;;;;;;;;4977768;28;20506;-71
2021/11/24 14:27:26;;;;;;;12.37;1.97;;;;;;;;;;4964646;28;20055;-71
2021/11/24 14:29:52;;;;;;;11.75;1.83;;;;;;;;;;4977079;28;20310;-71
2021/11/24 14:32:19;;;;;;;14.73;1.80;;;;;;;;;;4977347;28;20082;-71
2021/11/24 14:34:46;;;;;;;12.93;1.55;;;;;;;;;;4977561;28;20078;-70
2021/11/24 14:37:13;;;;;;;6.22;1.25;;;;;;;;;;4961474;28;20606;-70
2021/11/24 14:39:39;;;;;;;13.93;2.17;;;;;;;;;;4977460;28;20077;-70
2021/11/24 14:42:06;;;;;;;9.93;1.90;;;;;;;;;;4977609;28;20133;-70
2021/11/24 14:44:33;;;;;;;8.73;1.48;;;;;;;;;;4975944;28;20046;-71
2021/11/24 14:47:00;;;;;;;8.30;1.40;;;;;;;;;;4976469;28;20145;-70
2021/11/24 14:49:28;;;;;;;12.60;2.00;;;;;;;;;;4978155;28;20046;-70